Time;durP1;ratioP1;P1;durP2;ratioP2;P2;SDS_P1;SDS_P2;PMS_P1;PMS_P2;Temp;Humidity;BMP_temperature;BMP_pressure;BME280_temperature;BME280_humidity;BME280_pressure;Samples;Min_cycle;Max_cycle;Signal;HPM_P1;HPM_P2
2024/02/28 00:00:38;;;;;;;16.55;5.35;;;3.40;99.90;;;;;;5088366;28;20322;-76
2024/02/28 00:03:04;;;;;;;7.32;4.68;;;3.40;99.90;;;;;;5103407;28;20396;-75
2024/02/28 00:05:31;;;;;;;7.50;4.32;;;3.40;99.90;;;;;;5086243;28;20047;-76
2024/02/28 00:07:57;;;;;;;9.43;4.47;;;3.40;99.90;;;;;;5098711;28;20039;-77
2024/02/28 00:10:23;;;;;;;9.38;5.00;;;3.40;99.90;;;;;;5101981;28;20103;-72
2024/02/28 00:12:48;;;;;;;8.00;3.78;;;3.40;99.90;;;;;;5103834;28;20069;-76
2024/02/28 00:15:14;;;;;;;6.95;3.88;;;3.40;99.90;;;;;;5100619;28;20032;-76
2024/02/28 00:17:40;;;;;;;8.38;5.47;;;3.40;99.90;;;;;;5105478;28;20032;-76
2024/02/28 00:20:08;;;;;;;5.15;3.55;;;3.40;99.90;;;;;;5120057;28;20040;-75
2024/02/28 00:22:35;;;;;;;42.55;4.43;;;3.40;99.90;;;;;;5102832;28;20081;-76
2024/02/28 00:25:01;;;;;;;9.90;5.13;;;3.40;99.90;;;;;;5103192;28;20028;-76
2024/02/28 00:27:27;;;;;;;6.78;4.35;;;3.40;99.90;;;;;;5104119;28;20032;-74
2024/02/28 00:29:53;;;;;;;8.30;4.97;;;3.40;99.90;;;;;;5104885;28;20044;-76
2024/02/28 00:32:18;;;;;;;6.68;3.90;;;3.40;99.90;;;;;;5106621;28;20036;-76
2024/02/28 00:34:44;;;;;;;6.80;4.07;;;3.30;99.90;;;;;;5101972;28;20051;-76
2024/02/28 00:37:10;;;;;;;7.47;4.15;;;3.30;99.90;;;;;;5106255;28;20109;-76
2024/02/28 00:39:35;;;;;;;7.22;3.90;;;3.20;99.90;;;;;;5085431;28;20040;-77
2024/02/28 00:42:01;;;;;;;8.68;3.85;;;3.30;99.90;;;;;;5100311;28;20032;-77
2024/02/28 00:44:27;;;;;;;5.68;4.03;;;3.30;99.90;;;;;;5101864;28;20036;-76
2024/02/28 00:46:52;;;;;;;6.40;3.28;;;3.30;99.90;;;;;;5103159;28;20047;-76
2024/02/28 00:49:18;;;;;;;9.38;4.15;;;3.30;99.90;;;;;;5104296;28;20085;-76
2024/02/28 00:51:46;;;;;;;10.98;5.38;;;3.30;99.90;;;;;;5103404;28;20617;-76
2024/02/28 00:54:11;;;;;;;9.70;5.28;;;3.30;99.90;;;;;;5104976;28;20044;-76
2024/02/28 00:56:37;;;;;;;8.23;4.30;;;3.30;99.90;;;;;;5104879;28;20139;-75
2024/02/28 00:59:03;;;;;;;6.15;3.72;;;3.30;99.90;;;;;;5087260;28;20032;-76
2024/02/28 01:01:28;;;;;;;9.57;4.38;;;3.30;99.90;;;;;;5105731;28;20062;-77
2024/02/28 01:03:54;;;;;;;5.50;2.75;;;3.30;99.90;;;;;;5086969;28;20032;-75
2024/02/28 01:06:20;;;;;;;6.55;3.25;;;3.30;99.90;;;;;;5103477;28;20040;-77
2024/02/28 01:08:45;;;;;;;28.48;4.30;;;3.30;99.90;;;;;;5103323;28;20036;-73
2024/02/28 01:11:11;;;;;;;8.77;5.07;;;3.30;99.90;;;;;;5120648;28;20039;-77
2024/02/28 01:13:37;;;;;;;6.60;3.53;;;3.30;99.90;;;;;;5113866;28;20416;-75
2024/02/28 01:16:02;;;;;;;8.50;4.10;;;3.30;99.90;;;;;;5106440;28;20040;-77
2024/02/28 01:18:30;;;;;;;8.60;4.30;;;3.30;99.90;;;;;;5105702;28;20097;-72
2024/02/28 01:20:56;;;;;;;6.70;4.22;;;3.30;99.90;;;;;;5104720;28;20036;-76
2024/02/28 01:23:22;;;;;;;7.95;4.00;;;3.30;99.90;;;;;;5106206;28;20088;-76
2024/02/28 01:25:48;;;;;;;14.65;3.47;;;3.30;99.90;;;;;;5118952;28;20099;-76
2024/02/28 01:28:14;;;;;;;7.35;3.83;;;3.30;99.90;;;;;;5105933;28;20043;-76
2024/02/28 01:30:40;;;;;;;7.30;3.97;;;3.30;99.90;;;;;;5104322;28;20047;-73
2024/02/28 01:33:05;;;;;;;8.32;5.65;;;3.30;99.90;;;;;;5123417;28;20092;-76
2024/02/28 01:35:31;;;;;;;7.72;4.43;;;3.30;99.90;;;;;;5104167;28;20028;-76
2024/02/28 01:37:57;;;;;;;6.25;3.20;;;3.30;99.90;;;;;;5089331;28;20105;-76
2024/02/28 01:40:22;;;;;;;4.57;3.35;;;3.40;99.90;;;;;;5085077;28;20056;-76
2024/02/28 01:42:48;;;;;;;6.15;3.38;;;3.40;99.90;;;;;;5120659;28;20098;-76
2024/02/28 01:45:14;;;;;;;6.00;3.33;;;3.30;99.90;;;;;;5106285;28;20040;-76
2024/02/28 01:47:42;;;;;;;9.02;5.78;;;3.40;99.90;;;;;;5120373;28;20039;-76
2024/02/28 01:50:09;;;;;;;10.20;3.30;;;3.40;99.90;;;;;;5102211;28;20066;-75
2024/02/28 01:52:37;;;;;;;5.32;3.47;;;3.30;99.90;;;;;;5085992;28;20048;-75
2024/02/28 01:55:03;;;;;;;4.97;3.47;;;3.40;99.90;;;;;;5102542;28;20037;-76
2024/02/28 01:57:29;;;;;;;5.65;3.63;;;3.40;99.90;;;;;;5101318;28;20120;-76
2024/02/28 01:59:56;;;;;;;9.55;4.85;;;3.40;99.90;;;;;;5105193;28;20051;-75
2024/02/28 02:02:21;;;;;;;6.15;3.90;;;3.40;99.90;;;;;;5105106;28;20070;-73
2024/02/28 02:04:47;;;;;;;8.82;5.30;;;3.40;99.90;;;;;;5105958;28;20076;-76
2024/02/28 02:07:13;;;;;;;7.40;3.47;;;3.40;99.90;;;;;;5103165;28;20131;-73
2024/02/28 02:09:39;;;;;;;7.15;4.13;;;3.40;99.90;;;;;;5118352;28;20407;-76
2024/02/28 02:12:05;;;;;;;9.02;4.78;;;3.50;99.90;;;;;;5101111;28;20055;-76
2024/02/28 02:14:30;;;;;;;6.93;4.32;;;3.40;99.90;;;;;;5103497;28;20036;-76
2024/02/28 02:16:56;;;;;;;11.88;5.57;;;3.40;99.90;;;;;;5103969;28;20077;-76
2024/02/28 02:19:22;;;;;;;6.43;3.17;;;3.40;99.90;;;;;;5103918;28;20040;-76
2024/02/28 02:21:56;;;;;;;7.22;3.72;;;3.40;99.90;;;;;;5086227;28;20043;-76
2024/02/28 02:24:21;;;;;;;7.37;4.67;;;3.40;99.90;;;;;;5102072;28;20036;-76
2024/02/28 02:26:47;;;;;;;8.30;3.78;;;3.40;99.90;;;;;;5101034;28;20080;-76
2024/02/28 02:29:13;;;;;;;7.55;4.05;;;3.30;99.90;;;;;;5106180;28;20059;-76
2024/02/28 02:31:40;;;;;;;10.27;4.50;;;3.30;99.90;;;;;;5104972;28;20040;-76
2024/02/28 02:34:06;;;;;;;8.20;4.20;;;3.30;99.90;;;;;;5117007;28;20119;-76
2024/02/28 02:36:31;;;;;;;6.57;3.35;;;3.30;99.90;;;;;;5105846;28;20075;-76
2024/02/28 02:38:57;;;;;;;8.73;3.92;;;3.40;99.90;;;;;;5097607;28;20040;-76
2024/02/28 02:41:23;;;;;;;8.45;4.85;;;3.30;99.90;;;;;;5084272;28;20056;-76
2024/02/28 02:43:49;;;;;;;18.30;5.70;;;3.30;99.90;;;;;;5098034;28;20040;-72
2024/02/28 02:46:14;;;;;;;8.27;3.58;;;3.30;99.90;;;;;;5103764;28;20488;-75
2024/02/28 02:48:40;;;;;;;5.60;3.47;;;3.30;99.90;;;;;;5099653;28;20084;-76
2024/02/28 02:51:06;;;;;;;8.02;5.20;;;3.30;99.90;;;;;;5097806;28;20032;-73
2024/02/28 02:53:31;;;;;;;7.75;4.60;;;3.30;99.90;;;;;;5116116;28;20204;-72
2024/02/28 02:55:57;;;;;;;5.15;3.95;;;3.30;99.90;;;;;;5102197;28;20036;-76
2024/02/28 02:58:23;;;;;;;8.63;5.00;;;3.30;99.90;;;;;;5078370;28;20484;-76
2024/02/28 03:00:49;;;;;;;10.18;4.80;;;3.30;99.90;;;;;;5102748;28;20067;-76
2024/02/28 03:03:15;;;;;;;5.40;3.53;;;3.30;99.90;;;;;;5117492;28;20515;-76
2024/02/28 03:05:41;;;;;;;7.97;4.30;;;3.30;99.90;;;;;;5085283;28;20107;-75
2024/02/28 03:08:06;;;;;;;7.88;4.07;;;3.30;99.90;;;;;;5100046;28;20040;-75
2024/02/28 03:10:32;;;;;;;14.32;5.03;;;3.30;99.90;;;;;;5098893;28;20044;-76
2024/02/28 03:12:58;;;;;;;7.82;4.55;;;3.30;99.90;;;;;;5101097;28;20035;-75
2024/02/28 03:15:23;;;;;;;7.95;4.80;;;3.30;99.90;;;;;;5098003;28;20028;-75
2024/02/28 03:17:49;;;;;;;8.13;5.50;;;3.30;99.90;;;;;;5102315;28;20040;-74
2024/02/28 03:20:15;;;;;;;6.85;4.22;;;3.30;99.90;;;;;;5111758;28;20114;-75
2024/02/28 03:22:40;;;;;;;7.55;3.65;;;3.30;99.90;;;;;;5099589;28;20096;-76
2024/02/28 03:25:07;;;;;;;8.30;4.60;;;3.30;99.90;;;;;;5097572;28;20380;-76
2024/02/28 03:27:32;;;;;;;7.82;3.80;;;3.30;99.90;;;;;;5118151;28;20152;-75
2024/02/28 03:29:58;;;;;;;12.48;6.45;;;3.30;99.90;;;;;;5095577;28;20538;-76
2024/02/28 03:32:24;;;;;;;5.97;3.28;;;3.30;99.90;;;;;;5099001;28;20118;-74
2024/02/28 03:34:49;;;;;;;5.20;3.45;;;3.40;99.90;;;;;;5094040;28;20036;-76
2024/02/28 03:37:15;;;;;;;8.73;4.72;;;3.30;99.90;;;;;;5099262;28;20062;-76
2024/02/28 03:39:41;;;;;;;5.95;3.42;;;3.30;99.90;;;;;;5081214;28;20032;-76
2024/02/28 03:42:06;;;;;;;8.55;3.80;;;3.40;99.90;;;;;;5100301;28;20036;-76
2024/02/28 03:44:32;;;;;;;8.43;5.50;;;3.40;99.90;;;;;;5100169;28;20044;-77
2024/02/28 03:46:58;;;;;;;9.40;5.32;;;3.40;99.90;;;;;;5097182;28;20380;-76
2024/02/28 03:49:23;;;;;;;5.93;3.78;;;3.30;99.90;;;;;;5098157;28;20040;-72
2024/02/28 03:51:49;;;;;;;7.10;4.15;;;3.40;99.90;;;;;;5095069;28;20108;-75
2024/02/28 03:54:15;;;;;;;9.68;4.55;;;3.40;99.90;;;;;;5097816;28;20048;-76
2024/02/28 03:56:41;;;;;;;8.50;4.68;;;3.40;99.90;;;;;;5114658;28;20070;-75
2024/02/28 03:59:07;;;;;;;6.72;3.75;;;3.40;99.90;;;;;;5097602;28;20066;-76
2024/02/28 04:01:32;;;;;;;7.35;3.97;;;3.50;99.90;;;;;;5093195;28;20408;-76
2024/02/28 04:03:58;;;;;;;7.03;4.55;;;3.40;99.90;;;;;;5097123;28;20044;-75
2024/02/28 04:06:24;;;;;;;10.45;4.25;;;3.40;99.90;;;;;;5095878;28;20092;-76
2024/02/28 04:08:50;;;;;;;7.97;4.47;;;3.40;99.90;;;;;;5110645;28;20040;-76
2024/02/28 04:11:15;;;;;;;8.05;4.25;;;3.40;99.90;;;;;;5079945;28;20502;-75
2024/02/28 04:13:41;;;;;;;7.57;4.53;;;3.40;99.90;;;;;;5095326;28;20036;-76
2024/02/28 04:16:10;;;;;;;8.18;5.35;;;3.30;99.90;;;;;;5094060;28;20039;-77
2024/02/28 04:18:36;;;;;;;6.20;4.25;;;3.40;99.90;;;;;;5097219;28;20066;-77
2024/02/28 04:21:02;;;;;;;10.05;4.75;;;3.40;99.90;;;;;;5091710;28;20029;-77
2024/02/28 04:23:28;;;;;;;12.25;5.20;;;3.40;99.90;;;;;;5079830;28;20036;-76
2024/02/28 04:25:54;;;;;;;5.13;3.03;;;3.40;99.90;;;;;;5113849;28;20121;-78
2024/02/28 04:28:19;;;;;;;9.95;5.50;;;3.40;99.90;;;;;;5093836;28;20040;-78
2024/02/28 04:30:45;;;;;;;6.63;3.67;;;3.40;99.90;;;;;;5096146;28;20051;-77
2024/02/28 04:33:11;;;;;;;6.15;4.07;;;3.40;99.90;;;;;;5097086;28;20606;-78
2024/02/28 04:35:36;;;;;;;13.00;5.00;;;3.40;99.90;;;;;;5095379;28;20094;-77
2024/02/28 04:38:02;;;;;;;11.75;4.40;;;3.50;99.90;;;;;;5112639;28;20511;-77
2024/02/28 04:40:28;;;;;;;4.90;2.85;;;3.40;99.90;;;;;;5081414;28;20115;-78
2024/02/28 04:42:53;;;;;;;7.40;3.75;;;3.40;99.90;;;;;;5096789;28;20058;-77
2024/02/28 04:45:19;;;;;;;7.25;4.78;;;3.50;99.90;;;;;;5082281;28;20124;-77
2024/02/28 04:47:45;;;;;;;9.70;3.30;;;3.40;99.90;;;;;;5101524;28;20044;-78
2024/02/28 04:50:11;;;;;;;6.57;3.83;;;3.50;99.90;;;;;;5117536;28;20055;-78
2024/02/28 04:52:37;;;;;;;7.45;4.40;;;3.50;99.90;;;;;;5100427;28;20105;-74
2024/02/28 04:55:03;;;;;;;7.15;3.83;;;3.50;99.90;;;;;;5097731;28;20063;-75
2024/02/28 04:57:28;;;;;;;6.07;3.85;;;3.50;99.90;;;;;;5098570;28;20036;-76
2024/02/28 04:59:54;;;;;;;8.52;4.63;;;3.50;99.90;;;;;;5096905;28;20051;-75
2024/02/28 05:02:22;;;;;;;7.63;3.75;;;3.50;99.90;;;;;;5079880;28;20111;-77
2024/02/28 05:04:47;;;;;;;6.88;3.72;;;3.50;99.90;;;;;;5099942;28;20047;-75
2024/02/28 05:07:13;;;;;;;10.55;5.18;;;3.50;99.90;;;;;;5098937;28;20404;-76
2024/02/28 05:09:39;;;;;;;6.85;4.22;;;3.60;99.90;;;;;;5096052;28;20071;-76
2024/02/28 05:12:05;;;;;;;6.90;3.75;;;3.60;99.90;;;;;;5098620;28;20456;-75
2024/02/28 05:14:30;;;;;;;5.70;3.70;;;3.60;99.90;;;;;;5096825;28;20044;-75
2024/02/28 05:16:56;;;;;;;6.32;3.20;;;3.60;99.90;;;;;;5078166;28;20044;-75
2024/02/28 05:19:22;;;;;;;10.38;4.75;;;3.60;99.90;;;;;;5098432;28;20040;-76
2024/02/28 05:21:50;;;;;;;6.00;3.10;;;3.60;99.90;;;;;;5100587;28;20047;-76
2024/02/28 05:24:16;;;;;;;9.57;5.35;;;3.70;99.90;;;;;;5096709;28;20032;-75
2024/02/28 05:26:42;;;;;;;10.02;4.18;;;3.60;99.90;;;;;;5099053;28;20458;-76
2024/02/28 05:29:08;;;;;;;6.07;3.92;;;3.60;99.90;;;;;;5101897;28;20040;-75
2024/02/28 05:31:33;;;;;;;6.05;3.97;;;3.60;99.90;;;;;;5098201;28;20036;-76
2024/02/28 05:34:00;;;;;;;8.63;4.72;;;3.70;99.90;;;;;;5097870;28;20047;-76
2024/02/28 05:36:28;;;;;;;6.13;3.92;;;3.70;99.90;;;;;;5094406;28;20024;-75
2024/02/28 05:38:56;;;;;;;4.85;3.22;;;3.70;99.90;;;;;;5095349;28;20044;-76
2024/02/28 05:41:22;;;;;;;7.20;4.13;;;3.60;99.90;;;;;;5100172;28;20032;-77
2024/02/28 05:43:48;;;;;;;5.72;4.13;;;3.70;99.90;;;;;;5096691;28;20082;-76
2024/02/28 05:46:15;;;;;;;6.00;3.17;;;3.70;99.90;;;;;;5099118;28;20032;-77
2024/02/28 05:48:42;;;;;;;6.32;3.78;;;3.70;99.90;;;;;;5094371;28;20043;-77
2024/02/28 05:51:07;;;;;;;8.60;4.90;;;3.60;99.90;;;;;;5098165;28;20046;-76
2024/02/28 05:53:38;;;;;;;9.15;4.90;;;3.70;99.90;;;;;;5079165;28;20159;-74
2024/02/28 05:56:14;;;;;;;8.55;5.45;;;3.80;99.90;;;;;;5097536;28;20044;-76
2024/02/28 05:58:40;;;;;;;10.40;4.90;;;3.80;99.90;;;;;;5080707;28;20044;-76
2024/02/28 06:01:07;;;;;;;8.98;5.95;;;3.80;99.90;;;;;;5075293;28;20041;-75
2024/02/28 06:03:33;;;;;;;11.57;5.00;;;3.70;99.90;;;;;;5096600;28;20078;-74
2024/02/28 06:05:59;;;;;;;6.57;3.58;;;3.80;99.90;;;;;;5094115;28;20476;-76
2024/02/28 06:08:24;;;;;;;8.18;4.35;;;3.80;99.90;;;;;;5099148;28;20147;-76
2024/02/28 06:10:52;;;;;;;6.68;3.80;;;3.90;99.90;;;;;;5107547;28;20036;-76
2024/02/28 06:13:18;;;;;;;5.13;2.47;;;3.90;99.90;;;;;;5095917;28;20058;-77
2024/02/28 06:15:44;;;;;;;6.63;4.00;;;3.90;99.90;;;;;;5094947;28;20032;-76
2024/02/28 06:18:09;;;;;;;6.68;4.07;;;3.90;99.90;;;;;;5096862;28;20040;-74
2024/02/28 06:20:36;;;;;;;7.30;4.30;;;3.90;99.90;;;;;;5096359;28;20400;-76
2024/02/28 06:23:02;;;;;;;9.77;4.28;;;3.90;99.90;;;;;;5097831;28;20036;-76
2024/02/28 06:25:28;;;;;;;10.32;5.53;;;3.90;99.90;;;;;;5095397;28;20506;-76
2024/02/28 06:27:54;;;;;;;8.07;4.50;;;3.90;99.90;;;;;;5096668;28;20479;-76
2024/02/28 06:30:19;;;;;;;7.80;4.90;;;4.00;99.90;;;;;;5092778;28;20046;-77
2024/02/28 06:32:45;;;;;;;6.47;3.50;;;4.00;99.90;;;;;;5096528;28;20040;-76
2024/02/28 06:35:11;;;;;;;8.90;4.53;;;4.00;99.90;;;;;;5099558;28;20070;-77
2024/02/28 06:37:37;;;;;;;5.93;3.60;;;4.00;99.90;;;;;;5093658;28;20044;-77
2024/02/28 06:40:08;;;;;;;7.72;4.05;;;4.00;99.90;;;;;;5088533;28;20396;-76
2024/02/28 06:42:36;;;;;;;7.47;3.97;;;4.10;99.90;;;;;;5075358;28;20040;-76
2024/02/28 06:45:03;;;;;;;9.55;4.40;;;4.00;99.90;;;;;;5086341;28;20041;-77
2024/02/28 06:47:30;;;;;;;7.63;4.45;;;4.10;99.90;;;;;;5088122;28;20078;-77
2024/02/28 06:49:56;;;;;;;9.57;6.05;;;4.10;99.90;;;;;;5090688;28;20070;-76
2024/02/28 06:52:21;;;;;;;6.97;4.82;;;4.10;99.90;;;;;;5101820;28;20045;-77
2024/02/28 06:54:47;;;;;;;6.82;4.60;;;4.10;99.90;;;;;;5092073;28;20038;-76
2024/02/28 06:57:13;;;;;;;6.10;3.88;;;4.10;99.90;;;;;;5083715;28;20106;-76
2024/02/28 06:59:39;;;;;;;8.18;4.35;;;4.20;99.90;;;;;;5107844;28;20043;-77
2024/02/28 07:02:05;;;;;;;7.28;4.20;;;4.10;99.90;;;;;;5090562;28;20032;-77
2024/02/28 07:04:31;;;;;;;10.27;4.45;;;4.30;99.90;;;;;;5088494;28;20048;-77
2024/02/28 07:06:57;;;;;;;6.82;3.78;;;4.20;99.90;;;;;;5085975;28;20101;-76
2024/02/28 07:09:25;;;;;;;8.68;5.03;;;4.20;99.90;;;;;;5085753;28;20122;-77
2024/02/28 07:11:51;;;;;;;12.00;5.55;;;4.20;99.90;;;;;;5085374;28;20044;-78
2024/02/28 07:14:17;;;;;;;6.18;2.95;;;4.30;99.90;;;;;;5092696;28;20036;-77
2024/02/28 07:16:43;;;;;;;8.07;3.65;;;4.20;99.90;;;;;;5089062;28;20572;-77
2024/02/28 07:19:09;;;;;;;5.18;3.35;;;4.40;99.90;;;;;;5090007;28;20071;-77
2024/02/28 07:21:36;;;;;;;7.55;3.65;;;4.50;99.90;;;;;;5088148;28;20090;-77
2024/02/28 07:24:04;;;;;;;10.13;3.80;;;4.40;99.90;;;;;;5087422;28;20074;-77
2024/02/28 07:26:30;;;;;;;4.93;3.33;;;4.40;99.90;;;;;;5088231;28;20051;-76
2024/02/28 07:28:56;;;;;;;6.45;4.18;;;4.40;99.90;;;;;;5086329;28;20048;-77
2024/02/28 07:31:22;;;;;;;7.70;5.30;;;4.40;99.90;;;;;;5088951;28;20043;-75
2024/02/28 07:33:48;;;;;;;10.50;4.82;;;4.50;99.90;;;;;;5084934;28;20048;-76
2024/02/28 07:36:14;;;;;;;6.70;4.30;;;4.60;99.90;;;;;;5090745;28;20044;-76
2024/02/28 07:38:42;;;;;;;6.85;4.30;;;4.60;99.90;;;;;;5066780;28;20037;-77
2024/02/28 07:41:08;;;;;;;7.45;4.15;;;4.60;99.90;;;;;;5091451;28;20179;-76
2024/02/28 07:43:37;;;;;;;7.88;4.53;;;4.70;99.90;;;;;;5084094;28;20118;-76
2024/02/28 07:46:10;;;;;;;10.73;5.47;;;4.70;99.90;;;;;;5107432;28;20059;-76
2024/02/28 07:48:37;;;;;;;8.33;4.97;;;4.80;99.90;;;;;;5084139;28;20213;-77
2024/02/28 07:51:06;;;;;;;8.23;4.43;;;4.80;99.90;;;;;;5084733;28;20105;-78
2024/02/28 07:53:32;;;;;;;5.82;4.88;;;4.80;99.90;;;;;;5087347;28;20438;-77
2024/02/28 07:55:58;;;;;;;7.38;4.50;;;4.90;99.90;;;;;;5087559;28;20040;-76
2024/02/28 07:58:23;;;;;;;7.72;4.32;;;4.90;99.90;;;;;;5091432;28;20081;-77
2024/02/28 08:00:52;;;;;;;9.15;4.18;;;4.90;99.90;;;;;;5087870;28;20125;-76
2024/02/28 08:03:18;;;;;;;9.45;4.80;;;4.90;99.90;;;;;;5075099;28;20038;-76
2024/02/28 08:05:44;;;;;;;10.88;3.92;;;4.90;99.90;;;;;;5089227;28;20039;-77
2024/02/28 08:08:10;;;;;;;10.52;5.70;;;4.90;99.90;;;;;;5088108;28;20070;-76
2024/02/28 08:10:37;;;;;;;11.75;5.97;;;4.90;99.90;;;;;;5089452;28;20082;-77
2024/02/28 08:13:04;;;;;;;6.32;4.22;;;4.90;99.90;;;;;;5088965;28;20437;-78
2024/02/28 08:15:30;;;;;;;9.65;5.28;;;5.00;99.90;;;;;;5090274;28;20110;-73
2024/02/28 08:17:55;;;;;;;7.32;4.57;;;5.00;99.90;;;;;;5090217;28;20139;-77
2024/02/28 08:20:21;;;;;;;14.40;5.93;;;5.00;99.90;;;;;;5088047;28;20086;-77
2024/02/28 08:22:47;;;;;;;10.70;5.28;;;5.00;99.90;;;;;;5090123;28;20408;-77
2024/02/28 08:25:14;;;;;;;9.98;4.53;;;5.00;99.90;;;;;;5104252;28;20043;-77
2024/02/28 08:27:40;;;;;;;12.70;5.45;;;5.00;99.90;;;;;;5090971;28;20048;-77
2024/02/28 08:30:06;;;;;;;17.13;6.45;;;5.00;99.90;;;;;;5088931;28;20076;-77
2024/02/28 08:32:33;;;;;;;9.45;5.50;;;5.00;99.90;;;;;;5107029;28;20044;-76
2024/02/28 08:34:58;;;;;;;9.45;5.50;;;5.00;99.90;;;;;;5098253;28;20040;-76
2024/02/28 08:37:25;;;;;;;11.57;6.05;;;5.10;99.90;;;;;;5085563;28;20423;-77
2024/02/28 08:39:50;;;;;;;9.25;4.88;;;5.10;99.90;;;;;;5085986;28;20036;-78
2024/02/28 08:42:16;;;;;;;26.70;15.40;;;5.10;99.90;;;;;;5087501;28;20185;-77
2024/02/28 08:44:42;;;;;;;16.05;8.85;;;5.10;99.90;;;;;;5100814;28;20424;-76
2024/02/28 08:47:09;;;;;;;9.90;5.45;;;5.10;99.90;;;;;;5089161;28;20119;-76
2024/02/28 08:49:35;;;;;;;8.02;4.75;;;5.10;99.90;;;;;;5086336;28;20048;-77
2024/02/28 08:52:03;;;;;;;8.30;4.85;;;5.20;99.90;;;;;;5086473;28;20092;-77
2024/02/28 08:54:29;;;;;;;9.63;4.78;;;5.20;99.90;;;;;;5089820;28;20429;-76
2024/02/28 08:56:55;;;;;;;11.52;5.60;;;5.20;99.90;;;;;;5087247;28;20507;-76
2024/02/28 08:59:21;;;;;;;10.32;5.32;;;5.20;99.90;;;;;;5090749;28;20024;-78
2024/02/28 09:01:48;;;;;;;12.70;4.53;;;5.40;99.90;;;;;;5089067;28;20408;-76
2024/02/28 09:04:14;;;;;;;11.65;4.95;;;5.30;99.90;;;;;;5088652;28;20058;-77
2024/02/28 09:06:40;;;;;;;10.30;4.47;;;5.40;99.90;;;;;;5087866;28;20090;-77
2024/02/28 09:09:05;;;;;;;8.27;4.38;;;5.50;99.90;;;;;;5088334;28;20487;-76
2024/02/28 09:11:31;;;;;;;7.05;4.85;;;5.60;99.90;;;;;;5086347;28;20100;-78
2024/02/28 09:13:57;;;;;;;9.00;5.28;;;5.70;99.90;;;;;;5089392;28;20091;-76
2024/02/28 09:16:22;;;;;;;11.57;5.53;;;5.80;99.90;;;;;;5101911;28;20044;-77
2024/02/28 09:18:48;;;;;;;8.27;3.78;;;6.00;99.90;;;;;;5088121;28;20036;-77
2024/02/28 09:21:15;;;;;;;7.88;5.18;;;6.20;99.90;;;;;;5069819;28;20390;-77
2024/02/28 09:23:41;;;;;;;12.20;6.55;;;6.30;99.90;;;;;;5088346;28;20033;-76
2024/02/28 09:26:07;;;;;;;7.18;4.53;;;6.30;99.90;;;;;;5105608;28;20040;-76
2024/02/28 09:28:33;;;;;;;11.85;5.75;;;6.30;99.90;;;;;;5084972;28;20562;-74
2024/02/28 09:30:59;;;;;;;13.00;6.43;;;6.30;99.90;;;;;;5091531;28;20040;-77
2024/02/28 09:33:25;;;;;;;11.77;6.75;;;6.40;99.90;;;;;;5076488;28;20094;-77
2024/02/28 09:35:51;;;;;;;10.40;5.13;;;6.50;99.90;;;;;;5092765;28;20144;-77
2024/02/28 09:38:16;;;;;;;10.52;6.68;;;6.50;99.90;;;;;;5075933;28;20115;-77
2024/02/28 09:40:47;;;;;;;12.18;6.30;;;6.60;99.90;;;;;;5096224;28;20711;-77
2024/02/28 09:43:30;;;;;;;9.85;5.55;;;6.70;99.90;;;;;;5099373;28;20048;-76
2024/02/28 09:46:07;;;;;;;10.82;5.68;;;6.60;99.90;;;;;;5094412;28;20047;-77
2024/02/28 09:48:32;;;;;;;9.25;5.60;;;6.70;99.90;;;;;;5109564;28;20099;-73
2024/02/28 09:51:00;;;;;;;8.98;5.25;;;6.80;99.90;;;;;;5093124;28;20036;-77
2024/02/28 09:53:26;;;;;;;7.95;4.45;;;6.80;99.90;;;;;;5090952;28;20044;-76
2024/02/28 09:55:52;;;;;;;11.10;6.15;;;6.90;99.90;;;;;;5083424;28;20044;-77
2024/02/28 09:58:22;;;;;;;11.68;5.85;;;7.00;99.90;;;;;;5088382;28;20118;-77
2024/02/28 10:00:48;;;;;;;8.77;4.85;;;7.10;99.90;;;;;;5093681;28;20032;-77
2024/02/28 10:03:20;;;;;;;11.48;4.90;;;7.10;99.90;;;;;;5091234;28;20555;-77
2024/02/28 10:05:47;;;;;;;11.43;5.75;;;7.10;99.90;;;;;;5086427;28;20044;-77
2024/02/28 10:08:14;;;;;;;11.00;6.55;;;7.20;99.90;;;;;;5094633;28;20077;-78
2024/02/28 10:10:49;;;;;;;10.75;5.30;;;7.10;99.90;;;;;;5077609;28;20043;-77
2024/02/28 10:13:18;;;;;;;16.08;8.23;;;7.10;99.90;;;;;;5096252;28;20484;-77
2024/02/28 10:15:44;;;;;;;10.82;5.80;;;7.20;99.90;;;;;;5103234;28;20119;-77
2024/02/28 10:18:10;;;;;;;8.52;5.15;;;7.20;99.90;;;;;;5092182;28;20032;-77
2024/02/28 10:20:36;;;;;;;10.82;5.53;;;7.20;99.90;;;;;;5070122;28;20086;-76
2024/02/28 10:23:08;;;;;;;9.48;5.85;;;7.20;99.90;;;;;;5091625;28;20119;-78
2024/02/28 10:25:41;;;;;;;11.20;5.82;;;7.20;99.90;;;;;;5090587;28;20047;-78
2024/02/28 10:28:07;;;;;;;11.50;5.25;;;7.10;99.90;;;;;;5092263;28;20070;-76
2024/02/28 10:30:32;;;;;;;7.88;5.07;;;7.20;99.90;;;;;;5091440;28;20044;-78
2024/02/28 10:32:58;;;;;;;13.43;6.47;;;7.20;99.90;;;;;;5109406;28;20051;-76
2024/02/28 10:35:25;;;;;;;15.38;5.65;;;7.20;99.90;;;;;;5090986;28;20046;-76
2024/02/28 10:37:53;;;;;;;10.65;6.75;;;7.20;99.90;;;;;;5092098;28;20487;-78
2024/02/28 10:40:21;;;;;;;9.13;5.82;;;7.30;99.90;;;;;;5090628;28;20124;-76
2024/02/28 10:42:48;;;;;;;8.55;5.57;;;7.40;99.90;;;;;;5090663;28;20114;-76
2024/02/28 10:45:17;;;;;;;14.80;6.75;;;7.40;99.90;;;;;;5093397;28;20071;-78
2024/02/28 10:47:43;;;;;;;13.80;6.78;;;7.50;99.90;;;;;;5091346;28;20058;-78
2024/02/28 10:50:09;;;;;;;13.77;5.68;;;7.50;99.90;;;;;;5090090;28;20048;-78
2024/02/28 10:52:43;;;;;;;12.50;7.35;;;7.50;99.90;;;;;;5107808;28;20052;-79
2024/02/28 10:55:09;;;;;;;12.85;6.30;;;7.50;99.90;;;;;;5093840;28;20333;-78
2024/02/28 10:57:36;;;;;;;8.23;5.30;;;7.50;99.90;;;;;;5087759;28;20086;-79
2024/02/28 11:00:05;;;;;;;9.07;5.32;;;7.50;99.90;;;;;;5094316;28;20105;-79
2024/02/28 11:02:32;;;;;;;11.60;7.05;;;7.50;99.90;;;;;;5090431;28;20035;-78
2024/02/28 11:05:00;;;;;;;8.95;5.47;;;7.50;99.90;;;;;;5093618;28;20035;-78
2024/02/28 11:07:26;;;;;;;12.27;5.97;;;7.50;99.90;;;;;;5089650;28;20051;-77
2024/02/28 11:09:55;;;;;;;11.05;6.15;;;7.50;99.90;;;;;;5093633;28;20441;-77
2024/02/28 11:12:28;;;;;;;9.75;5.40;;;7.60;99.90;;;;;;5073168;28;20043;-78
2024/02/28 11:15:02;;;;;;;10.60;5.68;;;7.60;99.90;;;;;;5104641;28;20040;-78
2024/02/28 11:17:29;;;;;;;9.20;5.03;;;7.70;99.90;;;;;;5088076;28;20036;-78
2024/02/28 11:19:55;;;;;;;8.98;5.20;;;7.70;99.90;;;;;;5092938;28;20075;-78
2024/02/28 11:22:21;;;;;;;11.65;6.50;;;7.70;99.90;;;;;;5103539;28;20102;-78
2024/02/28 11:24:49;;;;;;;10.15;6.55;;;7.80;99.90;;;;;;5090332;28;20043;-78
2024/02/28 11:27:16;;;;;;;10.95;6.85;;;7.80;99.90;;;;;;5089142;28;20040;-78
2024/02/28 11:29:42;;;;;;;10.50;5.60;;;7.90;99.90;;;;;;5093114;28;20040;-78
2024/02/28 11:32:10;;;;;;;11.68;6.45;;;8.00;99.90;;;;;;5090481;28;20036;-77
2024/02/28 11:34:36;;;;;;;15.77;7.00;;;8.10;99.90;;;;;;5086446;28;20097;-78
2024/02/28 11:37:03;;;;;;;10.77;6.22;;;8.10;99.90;;;;;;5102227;28;20035;-78
2024/02/28 11:39:31;;;;;;;9.25;5.40;;;8.20;99.90;;;;;;5101899;28;20032;-77
2024/02/28 11:42:15;;;;;;;12.93;6.60;;;8.30;99.90;;;;;;5089033;28;20044;-78
2024/02/28 11:44:41;;;;;;;10.70;5.85;;;8.40;99.90;;;;;;5083688;28;20051;-76
2024/02/28 11:47:10;;;;;;;10.38;5.45;;;8.60;99.90;;;;;;5089936;28;20046;-78
2024/02/28 11:49:40;;;;;;;8.88;5.78;;;8.80;99.90;;;;;;5082061;28;20036;-77
2024/02/28 11:52:06;;;;;;;10.88;6.28;;;8.70;99.90;;;;;;5086996;28;20132;-78
2024/02/28 11:54:32;;;;;;;9.80;6.15;;;8.80;99.90;;;;;;5066357;28;20559;-78
2024/02/28 11:56:58;;;;;;;11.07;6.20;;;8.80;99.90;;;;;;5086627;28;20075;-77
2024/02/28 11:59:23;;;;;;;11.30;6.30;;;8.90;99.90;;;;;;5089185;28;20068;-78
2024/02/28 12:01:50;;;;;;;10.27;5.90;;;9.00;99.90;;;;;;5086907;28;20072;-78
2024/02/28 12:04:16;;;;;;;7.35;5.57;;;9.00;99.90;;;;;;5078734;28;20127;-78
2024/02/28 12:06:43;;;;;;;8.95;5.28;;;9.10;99.90;;;;;;5088898;28;20489;-79
2024/02/28 12:09:14;;;;;;;13.48;6.47;;;9.10;99.90;;;;;;5069157;28;20059;-78
2024/02/28 12:11:40;;;;;;;11.02;5.68;;;9.20;99.90;;;;;;5072346;28;20055;-77
2024/02/28 12:14:09;;;;;;;9.52;5.88;;;9.20;99.90;;;;;;5082660;28;20055;-76
2024/02/28 12:16:39;;;;;;;8.10;5.13;;;9.20;99.90;;;;;;5087668;28;20040;-79
2024/02/28 12:19:09;;;;;;;8.88;6.10;;;9.20;99.90;;;;;;5086110;28;20503;-77
2024/02/28 12:21:37;;;;;;;12.10;6.65;;;9.20;99.90;;;;;;5102015;28;20044;-78
2024/02/28 12:24:04;;;;;;;9.25;5.13;;;9.10;99.90;;;;;;5085897;28;20557;-78
2024/02/28 12:26:30;;;;;;;9.50;5.85;;;9.10;99.90;;;;;;5090058;28;20398;-75
2024/02/28 12:28:56;;;;;;;8.23;5.55;;;9.10;99.90;;;;;;5086918;28;20091;-78
2024/02/28 12:31:21;;;;;;;9.05;5.32;;;9.10;99.90;;;;;;5072036;28;20068;-78
2024/02/28 12:33:47;;;;;;;9.50;5.70;;;9.10;99.90;;;;;;5086255;28;20094;-78
2024/02/28 12:36:13;;;;;;;9.43;5.72;;;9.10;99.90;;;;;;5067990;28;20044;-78
2024/02/28 12:38:41;;;;;;;9.00;5.97;;;9.10;99.90;;;;;;5087455;28;20619;-77
2024/02/28 12:41:06;;;;;;;8.48;5.80;;;9.10;99.90;;;;;;5086326;28;20036;-77
2024/02/28 12:43:32;;;;;;;7.20;5.25;;;9.10;99.90;;;;;;5104599;28;20389;-78
2024/02/28 12:45:59;;;;;;;8.70;5.75;;;9.10;99.90;;;;;;5103192;28;20150;-75
2024/02/28 12:48:25;;;;;;;7.72;4.35;;;9.00;99.90;;;;;;5097970;28;20048;-77